Pearson, Arkansas
Current Conditions -  °F | °C
As of 3:35 AM on Saturday 20 Dec 2014 (Local Time) from KCCA Reporting Station
Haze Haze  
Wind Chill:   Ceiling: 3100
Heat Index:   Visibility: 5mi
Dew Point:   Wind: 0mph
Humidity: 93%   Direction: NA
Pressure: 30.24"   Gusts: NA
Location:  35.4081°N, 92.1263°W
Report Text: KCCA 200935Z AUTO 00000KT 5SM BR SCT013 OVC031 04/03 A3024 RMK AO2
Loading
Personal Weather Stations






























Interactive Weather Map New forecast layout! Learn more

10-Day Weather Forecast

Advertisements
Track Severe Weather on mobile